createdAt,value
2023-04-07T00:00:32.181Z,100
2023-04-07T00:01:48.000Z,100
2023-04-07T00:03:04.000Z,100
2023-04-07T00:04:20.000Z,100
2023-04-07T00:05:36.000Z,100
2023-04-07T00:06:52.000Z,100
2023-04-07T00:08:07.000Z,100
2023-04-07T00:09:23.000Z,100
2023-04-07T00:10:40.000Z,100
2023-04-07T00:11:56.000Z,100
2023-04-07T00:13:12.000Z,100
2023-04-07T00:14:28.794Z,100
2023-04-07T00:15:44.000Z,100
2023-04-07T00:16:59.000Z,100
2023-04-07T00:18:15.000Z,100
2023-04-07T00:19:31.415Z,100
2023-04-07T00:20:46.000Z,100
2023-04-07T00:22:01.752Z,100
2023-04-07T00:23:17.000Z,99.6
2023-04-07T00:24:33.000Z,99.8
2023-04-07T00:25:48.000Z,100
2023-04-07T00:27:04.385Z,100
2023-04-07T00:28:20.000Z,99.4
2023-04-07T00:29:36.673Z,100
2023-04-07T00:30:52.812Z,100
2023-04-07T00:32:08.000Z,100
2023-04-07T00:33:25.105Z,100
2023-04-07T00:34:41.000Z,100
2023-04-07T00:35:57.000Z,100
2023-04-07T00:37:13.000Z,100
2023-04-07T00:38:29.000Z,100
2023-04-07T00:39:45.000Z,100
2023-04-07T00:41:01.000Z,100
2023-04-07T00:42:18.124Z,100
2023-04-07T00:43:33.000Z,100
2023-04-07T00:44:49.430Z,100
2023-04-07T00:46:05.000Z,100
2023-04-07T00:47:21.728Z,100
2023-04-07T00:48:37.000Z,100
2023-04-07T00:49:53.000Z,100
2023-04-07T00:51:09.000Z,100
2023-04-07T00:52:25.331Z,100
2023-04-07T00:53:40.000Z,100
2023-04-07T00:54:55.000Z,100
2023-04-07T00:56:10.828Z,100
2023-04-07T00:57:26.000Z,100
2023-04-07T00:58:42.000Z,100
2023-04-07T00:59:59.000Z,100
2023-04-07T01:01:15.420Z,100
2023-04-07T01:02:31.000Z,100
2023-04-07T01:03:47.000Z,100
2023-04-07T01:05:03.000Z,100
2023-04-07T01:06:19.000Z,100
2023-04-07T01:07:35.000Z,100
2023-04-07T01:08:52.282Z,100
2023-04-07T01:10:08.000Z,100
2023-04-07T01:11:24.576Z,100
2023-04-07T01:12:39.000Z,100
2023-04-07T01:13:55.892Z,100
2023-04-07T01:15:11.000Z,100
2023-04-07T01:16:27.000Z,100
2023-04-07T01:17:44.320Z,100
2023-04-07T01:19:00.000Z,100
2023-04-07T01:20:16.615Z,100
2023-04-07T01:21:31.000Z,100
2023-04-07T01:22:46.000Z,100
2023-04-07T01:24:02.000Z,100
2023-04-07T01:25:19.000Z,100
2023-04-07T01:26:35.388Z,100
2023-04-07T01:27:51.000Z,100
2023-04-07T01:29:07.000Z,100
2023-04-07T01:30:23.825Z,100
2023-04-07T01:31:39.000Z,100
2023-04-07T01:32:56.118Z,100
2023-04-07T01:34:12.000Z,100
2023-04-07T01:35:28.000Z,100
2023-04-07T01:36:44.550Z,100
2023-04-07T01:38:00.000Z,100
2023-04-07T01:39:15.861Z,100
2023-04-07T01:40:31.000Z,100
2023-04-07T01:41:47.000Z,100
2023-04-07T01:43:04.000Z,100
2023-04-07T01:44:20.000Z,100
2023-04-07T01:45:36.000Z,100
2023-04-07T01:46:52.000Z,100
2023-04-07T01:48:07.000Z,100
2023-04-07T01:49:23.079Z,100
2023-04-07T01:50:38.000Z,100
2023-04-07T01:51:54.000Z,100
2023-04-07T01:53:09.000Z,100
2023-04-07T01:54:24.000Z,100
2023-04-07T01:55:39.000Z,100
2023-04-07T01:56:55.000Z,100
2023-04-07T01:58:11.000Z,100
2023-04-07T01:59:28.000Z,100
2023-04-07T02:00:44.466Z,100
2023-04-07T02:02:00.000Z,100
2023-04-07T02:03:16.000Z,100
2023-04-07T02:04:32.000Z,100
2023-04-07T02:05:49.045Z,100
2023-04-07T02:07:05.195Z,100
2023-04-07T02:08:21.338Z,100
2023-04-07T02:09:37.494Z,100
2023-04-07T02:10:53.000Z,100
2023-04-07T02:12:08.000Z,100
2023-04-07T02:13:24.000Z,100
2023-04-07T02:14:40.000Z,100
2023-04-07T02:15:57.000Z,100
2023-04-07T02:17:13.384Z,100
2023-04-07T02:18:29.526Z,100
2023-04-07T02:19:45.000Z,100
2023-04-07T02:21:00.000Z,100
2023-04-07T02:22:16.010Z,100
2023-04-07T02:23:32.149Z,100
2023-04-07T02:24:48.000Z,100
2023-04-07T02:26:04.446Z,100
2023-04-07T02:27:19.000Z,100
2023-04-07T02:28:34.000Z,100
2023-04-07T02:29:50.921Z,100
2023-04-07T02:31:06.000Z,100
2023-04-07T02:32:22.000Z,100
2023-04-07T02:33:39.000Z,100
2023-04-07T02:34:55.538Z,100
2023-04-07T02:36:11.000Z,100
2023-04-07T02:37:27.000Z,100
2023-04-07T02:38:43.000Z,100
2023-04-07T02:39:59.000Z,100
2023-04-07T02:41:16.238Z,100
2023-04-07T02:42:32.000Z,100
2023-04-07T02:43:48.533Z,100
2023-04-07T02:45:03.000Z,100
2023-04-07T02:46:19.000Z,100
2023-04-07T02:47:35.000Z,100
2023-04-07T02:48:52.127Z,100
2023-04-07T02:50:08.000Z,100
2023-04-07T02:51:24.000Z,100
2023-04-07T02:52:40.000Z,100
2023-04-07T02:53:55.000Z,100
2023-04-07T02:55:10.000Z,100
2023-04-07T02:56:25.000Z,100
2023-04-07T02:57:41.000Z,100
2023-04-07T02:58:57.000Z,100
2023-04-07T03:00:13.000Z,100
2023-04-07T03:01:29.000Z,100
2023-04-07T03:02:45.000Z,100
2023-04-07T03:04:01.962Z,100
2023-04-07T03:05:18.105Z,100
2023-04-07T03:06:34.259Z,100
2023-04-07T03:07:50.000Z,100
2023-04-07T03:09:06.543Z,100
2023-04-07T03:10:22.692Z,100
2023-04-07T03:11:38.000Z,100
2023-04-07T03:12:54.983Z,100
2023-04-07T03:14:09.000Z,100
2023-04-07T03:15:26.000Z,100
2023-04-07T03:16:42.000Z,100
2023-04-07T03:17:58.000Z,100
2023-04-07T03:19:14.000Z,100
2023-04-07T03:20:30.000Z,100
2023-04-07T03:21:46.000Z,100
2023-04-07T03:23:01.000Z,100
2023-04-07T03:24:17.000Z,100
2023-04-07T03:25:33.000Z,100
2023-04-07T03:26:48.000Z,100
2023-04-07T03:28:03.000Z,100
2023-04-07T03:29:19.000Z,100
2023-04-07T03:30:36.138Z,100
2023-04-07T03:31:52.000Z,100
2023-04-07T03:33:08.000Z,100
2023-04-07T03:34:24.000Z,100
2023-04-07T03:35:40.000Z,100
2023-04-07T03:36:56.000Z,100
2023-04-07T03:38:12.000Z,100
2023-04-07T03:39:28.000Z,100
2023-04-07T03:40:45.000Z,100
2023-04-07T03:42:01.000Z,100
2023-04-07T03:43:17.000Z,100
2023-04-07T03:44:32.758Z,100
2023-04-07T03:45:48.000Z,100
2023-04-07T03:47:04.000Z,100
2023-04-07T03:48:20.000Z,100
2023-04-07T03:49:37.000Z,100
2023-04-07T03:50:53.000Z,100
2023-04-07T03:52:09.000Z,100
2023-04-07T03:53:24.000Z,100
2023-04-07T03:54:39.000Z,100
2023-04-07T03:55:56.114Z,100
2023-04-07T03:57:12.000Z,100
2023-04-07T03:58:27.000Z,100
2023-04-07T03:59:42.000Z,100
2023-04-07T04:00:58.000Z,100
2023-04-07T04:02:14.000Z,100
2023-04-07T04:03:30.000Z,100
2023-04-07T04:04:46.000Z,100
2023-04-07T04:06:03.000Z,100
2023-04-07T04:07:19.482Z,100
2023-04-07T04:08:35.000Z,100
2023-04-07T04:09:51.000Z,100
2023-04-07T04:11:07.919Z,100
2023-04-07T04:12:23.000Z,100
2023-04-07T04:13:39.000Z,100
2023-04-07T04:14:56.000Z,100
2023-04-07T04:16:11.000Z,100
2023-04-07T04:17:27.000Z,100
2023-04-07T04:18:43.000Z,100
2023-04-07T04:19:59.000Z,100
2023-04-07T04:21:16.105Z,100
2023-04-07T04:22:32.000Z,100
2023-04-07T04:23:48.000Z,100
2023-04-07T04:25:03.000Z,100
2023-04-07T04:26:18.000Z,100
2023-04-07T04:27:33.000Z,100
2023-04-07T04:28:48.000Z,100
2023-04-07T04:30:04.000Z,100
2023-04-07T04:31:21.376Z,99.9
2023-04-07T04:32:37.000Z,99.6
2023-04-07T04:33:53.000Z,98.8
2023-04-07T04:35:09.000Z,99.6
2023-04-07T04:36:25.956Z,99.3
2023-04-07T04:37:41.000Z,99.4
2023-04-07T04:38:58.000Z,99.4
2023-04-07T04:40:14.397Z,98.6
2023-04-07T04:41:30.000Z,98.6
2023-04-07T04:42:46.000Z,98.5
2023-04-07T04:44:02.000Z,97.8
2023-04-07T04:45:17.000Z,97.1
2023-04-07T04:46:33.000Z,97.1
2023-04-07T04:47:50.000Z,97.5
2023-04-07T04:49:06.000Z,97
2023-04-07T04:50:22.000Z,95.8
2023-04-07T04:51:38.000Z,95
2023-04-07T04:52:54.883Z,95.4
2023-04-07T04:54:09.000Z,95.2
2023-04-07T04:55:24.000Z,95.6
2023-04-07T04:56:40.000Z,95.9
2023-04-07T04:57:55.000Z,96.2
2023-04-07T04:59:11.000Z,96.6
2023-04-07T05:00:27.000Z,97.3
2023-04-07T05:01:43.000Z,97.4
2023-04-07T05:02:59.000Z,97.6
2023-04-07T05:04:16.286Z,97.9
2023-04-07T05:05:32.000Z,98.3
2023-04-07T05:06:48.000Z,98.5
2023-04-07T05:08:04.000Z,98.5
2023-04-07T05:09:20.000Z,99.3
2023-04-07T05:10:36.000Z,98.4
2023-04-07T05:11:52.000Z,98.2
2023-04-07T05:13:09.000Z,98
2023-04-07T05:14:24.486Z,98.1
2023-04-07T05:15:40.000Z,98.1
2023-04-07T05:16:56.000Z,98.1
2023-04-07T05:18:12.920Z,98
2023-04-07T05:19:28.000Z,98
2023-04-07T05:20:44.000Z,98.1
2023-04-07T05:22:01.000Z,97.9
2023-04-07T05:23:17.000Z,96.9
2023-04-07T05:24:32.000Z,96.9
2023-04-07T05:25:47.852Z,96.7
2023-04-07T05:27:03.000Z,96.6
2023-04-07T05:28:18.000Z,96.3
2023-04-07T05:29:34.000Z,96.7
2023-04-07T05:30:50.000Z,96.9
2023-04-07T05:32:06.000Z,97
2023-04-07T05:33:22.000Z,97.1
2023-04-07T05:34:38.000Z,97.6
2023-04-07T05:35:54.000Z,97.5
2023-04-07T05:37:10.000Z,97.4
2023-04-07T05:39:43.000Z,96.5
2023-04-07T05:40:59.000Z,95.6
2023-04-07T05:42:15.000Z,95.9
2023-04-07T05:43:31.000Z,95.7
2023-04-07T05:44:47.000Z,95.7
2023-04-07T05:46:03.252Z,95.9
2023-04-07T05:47:19.000Z,97
2023-04-07T05:48:35.000Z,96.1
2023-04-07T05:49:51.695Z,95.1
2023-04-07T05:51:07.000Z,94.3
2023-04-07T05:52:23.000Z,93.7
2023-04-07T05:53:40.139Z,93.3
2023-04-07T05:54:56.000Z,92.7
2023-04-07T05:56:11.000Z,94.1
2023-04-07T05:57:26.000Z,95
2023-04-07T05:58:41.000Z,95.7
2023-04-07T05:59:56.000Z,95.6
2023-04-07T06:01:12.000Z,96.3
2023-04-07T06:02:29.000Z,95.9
2023-04-07T06:03:45.000Z,96.1
2023-04-07T06:05:01.000Z,96
2023-04-07T06:06:17.697Z,96.8
2023-04-07T06:07:33.000Z,97
2023-04-07T06:08:49.000Z,97.8
2023-04-07T06:10:05.000Z,98.3
2023-04-07T06:11:22.000Z,98.1
2023-04-07T06:12:38.000Z,98.7
2023-04-07T06:13:54.000Z,99.5
2023-04-07T06:15:10.725Z,100
2023-04-07T06:16:25.000Z,100
2023-04-07T06:17:41.000Z,100
2023-04-07T06:18:58.181Z,100
2023-04-07T06:20:14.000Z,100
2023-04-07T06:21:30.476Z,100
2023-04-07T06:22:46.000Z,100
2023-04-07T06:24:02.000Z,100
2023-04-07T06:25:17.000Z,100
2023-04-07T06:26:32.000Z,100
2023-04-07T06:27:48.278Z,100
2023-04-07T06:29:03.000Z,100
2023-04-07T06:30:19.000Z,100
2023-04-07T06:31:35.000Z,100
2023-04-07T06:32:51.882Z,100
2023-04-07T06:34:07.000Z,100
2023-04-07T06:35:23.000Z,100
2023-04-07T06:36:40.000Z,100
2023-04-07T06:37:56.000Z,100
2023-04-07T06:39:12.620Z,100
2023-04-07T06:40:28.000Z,100
2023-04-07T06:41:44.917Z,100
2023-04-07T06:43:00.000Z,100
2023-04-07T06:44:16.000Z,100
2023-04-07T06:45:32.000Z,100
2023-04-07T06:46:48.000Z,100
2023-04-07T06:48:04.000Z,100
2023-04-07T06:49:20.000Z,100
2023-04-07T06:50:36.954Z,100
2023-04-07T06:51:52.000Z,100
2023-04-07T06:53:09.000Z,100
2023-04-07T06:54:24.000Z,100
2023-04-07T06:55:39.578Z,100
2023-04-07T06:56:54.000Z,100
2023-04-07T06:58:09.921Z,100
2023-04-07T06:59:25.000Z,100
2023-04-07T07:00:41.000Z,100
2023-04-07T07:01:58.000Z,100
2023-04-07T07:03:14.000Z,100
2023-04-07T07:04:30.000Z,100
2023-04-07T07:05:46.000Z,100
2023-04-07T07:07:02.943Z,100
2023-04-07T07:08:19.096Z,100
2023-04-07T07:09:35.000Z,100
2023-04-07T07:10:51.389Z,100
2023-04-07T07:12:07.000Z,100
2023-04-07T07:13:23.000Z,100
2023-04-07T07:14:38.000Z,100
2023-04-07T07:15:54.000Z,100
2023-04-07T07:17:10.000Z,100
2023-04-07T07:18:27.286Z,100
2023-04-07T07:19:43.433Z,100
2023-04-07T07:20:59.580Z,100
2023-04-07T07:22:15.000Z,100
2023-04-07T07:23:30.000Z,100
2023-04-07T07:24:45.000Z,100
2023-04-07T07:26:01.000Z,100
2023-04-07T07:27:16.000Z,100
2023-04-07T07:28:32.000Z,100
2023-04-07T07:29:48.000Z,100
2023-04-07T07:31:04.000Z,100
2023-04-07T07:32:20.000Z,99.2
2023-04-07T07:33:36.000Z,100
2023-04-07T07:34:53.000Z,98.1
2023-04-07T07:36:09.000Z,97.9
2023-04-07T07:37:25.000Z,99.1
2023-04-07T07:38:41.000Z,97.8
2023-04-07T07:39:57.000Z,97
2023-04-07T07:41:12.000Z,96.7
2023-04-07T07:42:29.184Z,94.4
2023-04-07T07:43:45.000Z,93.3
2023-04-07T07:45:01.000Z,94.1
2023-04-07T07:46:17.622Z,91.8
2023-04-07T07:47:33.000Z,90.8
2023-04-07T07:48:49.000Z,91
2023-04-07T07:50:06.070Z,89.2
2023-04-07T07:51:21.000Z,85.4
2023-04-07T07:52:37.000Z,83.2
2023-04-07T07:53:52.000Z,82.9
2023-04-07T07:55:08.000Z,82
2023-04-07T07:56:23.000Z,81.9
2023-04-07T07:57:40.017Z,81
2023-04-07T07:58:54.000Z,82.6
2023-04-07T08:00:11.000Z,84.3
2023-04-07T08:01:27.000Z,83.8
2023-04-07T08:02:43.615Z,84.6
2023-04-07T08:03:59.000Z,81.9
2023-04-07T08:05:15.000Z,78.9
2023-04-07T08:06:31.000Z,79.3
2023-04-07T08:07:47.000Z,77.5
2023-04-07T08:09:04.000Z,76.8
2023-04-07T08:10:20.000Z,76.5
2023-04-07T08:11:36.000Z,76.6
2023-04-07T08:12:52.000Z,75.6
2023-04-07T08:14:08.000Z,76
2023-04-07T08:15:24.098Z,77.3
2023-04-07T08:16:40.000Z,75.6
2023-04-07T08:17:56.000Z,74.3
2023-04-07T08:19:12.000Z,74.7
2023-04-07T08:20:28.000Z,74.4
2023-04-07T08:21:44.000Z,77
2023-04-07T08:22:59.000Z,75.2
2023-04-07T08:24:14.000Z,74.7
2023-04-07T08:25:30.000Z,73.4
2023-04-07T08:26:45.000Z,72.1
2023-04-07T08:28:01.656Z,72.8
2023-04-07T08:29:17.000Z,75.3
2023-04-07T08:30:33.000Z,72.1
2023-04-07T08:31:49.000Z,74.3
2023-04-07T08:33:06.000Z,76
2023-04-07T08:34:22.000Z,74
2023-04-07T08:35:38.000Z,72.7
2023-04-07T08:36:54.000Z,71.8
2023-04-07T08:38:10.000Z,71.8
2023-04-07T08:39:26.000Z,69.5
2023-04-07T08:40:42.000Z,72.8
2023-04-07T08:41:59.000Z,70.4
2023-04-07T08:43:14.000Z,70.5
2023-04-07T08:44:30.000Z,71
2023-04-07T08:45:46.000Z,71.8
2023-04-07T08:47:02.000Z,71.2
2023-04-07T08:48:18.000Z,72.3
2023-04-07T08:49:34.000Z,71.8
2023-04-07T08:50:51.000Z,71.3
2023-04-07T08:52:06.000Z,68
2023-04-07T08:53:21.000Z,68.7
2023-04-07T08:54:37.799Z,68.3
2023-04-07T08:55:52.970Z,68.1
2023-04-07T08:57:07.000Z,68.6
2023-04-07T08:58:24.000Z,69.6
2023-04-07T08:59:40.000Z,71.6
2023-04-07T09:00:56.570Z,68.9
2023-04-07T09:02:12.000Z,67.6
2023-04-07T09:03:28.000Z,69
2023-04-07T09:04:45.010Z,68.4
2023-04-07T09:06:00.000Z,68.3
2023-04-07T09:07:17.000Z,66.7
2023-04-07T09:08:33.000Z,66.4
2023-04-07T09:09:49.000Z,66.2
2023-04-07T09:12:21.000Z,67.7
2023-04-07T09:13:36.000Z,66.3
2023-04-07T09:14:52.000Z,65.9
2023-04-07T09:16:09.348Z,65.9
2023-04-07T09:17:25.000Z,65.5
2023-04-07T09:18:41.000Z,67.1
2023-04-07T09:19:57.000Z,66.9
2023-04-07T09:21:13.000Z,69.3
2023-04-07T09:22:29.000Z,66.4
2023-04-07T09:23:45.257Z,66.4
2023-04-07T09:25:00.000Z,66.5
2023-04-07T09:26:15.000Z,66.1
2023-04-07T09:27:30.752Z,68.3
2023-04-07T09:28:46.901Z,66
2023-04-07T09:30:02.000Z,65.6
2023-04-07T09:31:18.000Z,64.5
2023-04-07T09:32:35.000Z,65.4
2023-04-07T09:33:51.000Z,68
2023-04-07T09:35:07.000Z,64.7
2023-04-07T09:36:23.783Z,66.4
2023-04-07T09:37:39.000Z,64.2
2023-04-07T09:38:55.000Z,65.3
2023-04-07T09:40:11.000Z,65.1
2023-04-07T09:41:28.365Z,66.7
2023-04-07T09:42:44.517Z,66.5
2023-04-07T09:43:59.000Z,65.9
2023-04-07T09:45:15.000Z,64.2
2023-04-07T09:46:31.000Z,63.4
2023-04-07T09:47:47.000Z,65.4
2023-04-07T09:49:04.000Z,65.1
2023-04-07T09:50:20.000Z,63.4
2023-04-07T09:51:36.000Z,62.3
2023-04-07T09:52:51.723Z,62.2
2023-04-07T09:54:06.000Z,63.9
2023-04-07T09:55:22.066Z,64.4
2023-04-07T09:56:37.000Z,64
2023-04-07T09:57:53.382Z,64.6
2023-04-07T09:59:09.000Z,65.4
2023-04-07T10:00:25.000Z,66.8
2023-04-07T10:01:41.000Z,68.3
2023-04-07T10:02:57.000Z,70.4
2023-04-07T10:04:13.000Z,68.8
2023-04-07T10:05:30.255Z,70.8
2023-04-07T10:06:46.000Z,71.5
2023-04-07T10:08:02.000Z,71.6
2023-04-07T10:09:18.000Z,72.8
2023-04-07T10:10:34.859Z,72.2
2023-04-07T10:11:50.000Z,70.8
2023-04-07T10:13:06.000Z,71.7
2023-04-07T10:14:22.000Z,70.7
2023-04-07T10:15:38.000Z,70.5
2023-04-07T10:16:54.000Z,73.2
2023-04-07T10:18:10.000Z,75.3
2023-04-07T10:19:26.000Z,75.4
2023-04-07T10:20:42.000Z,75.8
2023-04-07T10:21:57.000Z,77.1
2023-04-07T10:23:13.000Z,79.3
2023-04-07T10:24:28.000Z,77.3
2023-04-07T10:25:43.000Z,76.4
2023-04-07T10:26:59.000Z,79.3
2023-04-07T10:28:15.000Z,82.5
2023-04-07T10:29:30.000Z,78.6
2023-04-07T10:30:46.344Z,77.1
2023-04-07T10:32:02.000Z,76.7
2023-04-07T10:33:18.000Z,78.3
2023-04-07T10:34:34.000Z,79.5
2023-04-07T10:35:50.000Z,78.5
2023-04-07T10:37:07.083Z,79.7
2023-04-07T10:38:23.000Z,80.5
2023-04-07T10:39:39.000Z,84.7
2023-04-07T10:40:55.000Z,86.1
2023-04-07T10:42:11.000Z,90.6
2023-04-07T10:43:27.000Z,90.7
2023-04-07T10:44:43.000Z,91.1
2023-04-07T10:45:59.000Z,89.8
2023-04-07T10:47:15.000Z,90.4
2023-04-07T10:48:31.000Z,91.7
2023-04-07T10:49:47.573Z,85
2023-04-07T10:51:03.000Z,85.9
2023-04-07T10:53:35.000Z,85.1
2023-04-07T10:54:51.000Z,88.1
2023-04-07T10:56:08.000Z,86.7
2023-04-07T10:57:23.000Z,82.2
2023-04-07T10:58:38.000Z,80.8
2023-04-07T10:59:53.000Z,82.2
2023-04-07T11:01:08.000Z,81.8
2023-04-07T11:02:24.000Z,79.9
2023-04-07T11:03:41.000Z,77.9
2023-04-07T11:04:57.000Z,77.5
2023-04-07T11:06:13.000Z,79.9
2023-04-07T11:07:29.000Z,79.3
2023-04-07T11:08:45.000Z,73.6
2023-04-07T11:10:01.000Z,74.2
2023-04-07T11:11:17.000Z,71.8
2023-04-07T11:12:34.000Z,70.4
2023-04-07T11:13:50.000Z,68.6
2023-04-07T11:15:06.000Z,69.5
2023-04-07T11:16:22.000Z,71.7
2023-04-07T11:17:37.000Z,71.5
2023-04-07T11:18:54.053Z,71.7
2023-04-07T11:20:09.000Z,71.7
2023-04-07T11:21:26.350Z,72.7
2023-04-07T11:22:42.000Z,68.6
2023-04-07T11:23:58.000Z,66.3
2023-04-07T11:25:14.000Z,66.6
2023-04-07T11:26:29.000Z,65.2
2023-04-07T11:27:44.000Z,64.9
2023-04-07T11:29:00.000Z,66.3
2023-04-07T11:30:15.467Z,66.9
2023-04-07T11:31:31.000Z,68
2023-04-07T11:32:47.000Z,69.5
2023-04-07T11:34:03.000Z,67.2
2023-04-07T11:35:19.000Z,67.5
2023-04-07T11:36:35.000Z,69.8
2023-04-07T11:37:52.000Z,71
2023-04-07T11:39:08.000Z,72.4
2023-04-07T11:40:24.000Z,72
2023-04-07T11:41:40.000Z,69.7
2023-04-07T11:42:56.000Z,67
2023-04-07T11:44:13.081Z,67.8
2023-04-07T11:45:29.000Z,69.8
2023-04-07T11:46:45.000Z,69.4
2023-04-07T11:48:00.000Z,66.5
2023-04-07T11:49:16.000Z,68.2
2023-04-07T11:50:32.000Z,69
2023-04-07T11:51:48.000Z,68.9
2023-04-07T11:53:04.000Z,66.4
2023-04-07T11:54:21.000Z,67.3
2023-04-07T11:55:36.000Z,69.5
2023-04-07T11:56:51.000Z,68.6
2023-04-07T11:58:06.000Z,67.1
2023-04-07T11:59:21.000Z,66.6
2023-04-07T12:00:37.000Z,67.7
2023-04-07T12:01:54.241Z,68.3
2023-04-07T12:03:10.000Z,70.3
2023-04-07T12:04:26.000Z,73
2023-04-07T12:05:42.000Z,70.2
2023-04-07T12:06:58.000Z,68.8
2023-04-07T12:08:14.000Z,68.6
2023-04-07T12:09:30.000Z,68.2
2023-04-07T12:10:47.000Z,67.3
2023-04-07T12:12:03.000Z,69.3
2023-04-07T12:13:19.000Z,69.3
2023-04-07T12:14:35.000Z,70.7
2023-04-07T12:15:50.000Z,73.7
2023-04-07T12:17:06.000Z,73.8
2023-04-07T12:18:22.000Z,72.3
2023-04-07T12:19:39.000Z,72.7
2023-04-07T12:20:55.000Z,73.6
2023-04-07T12:22:11.000Z,71.3
2023-04-07T12:23:27.000Z,70.5
2023-04-07T12:24:42.000Z,69.7
2023-04-07T12:25:57.000Z,69.3
2023-04-07T12:27:13.000Z,72.5
2023-04-07T12:28:28.000Z,74.8
2023-04-07T12:29:43.596Z,73.2
2023-04-07T12:30:58.000Z,73.9
2023-04-07T12:32:14.000Z,74.3
2023-04-07T12:33:30.000Z,73.5
2023-04-07T12:34:46.000Z,72.5
2023-04-07T12:36:03.000Z,71.6
2023-04-07T12:37:19.000Z,74.2
2023-04-07T12:38:35.000Z,74.8
2023-04-07T12:39:51.000Z,77.3
2023-04-07T12:41:07.000Z,77.2
2023-04-07T12:42:23.000Z,78
2023-04-07T12:43:40.000Z,83.7
2023-04-07T12:44:56.000Z,81.4
2023-04-07T12:46:12.000Z,77.4
2023-04-07T12:47:27.000Z,78.1
2023-04-07T12:48:43.000Z,75.1
2023-04-07T12:49:59.000Z,74.4
2023-04-07T12:51:15.000Z,74.3
2023-04-07T12:52:32.000Z,72.7
2023-04-07T12:53:48.000Z,74.4
2023-04-07T12:55:04.000Z,74.5
2023-04-07T12:56:19.000Z,74.4
2023-04-07T12:57:34.000Z,73.1
2023-04-07T12:58:50.000Z,70.7
2023-04-07T13:00:05.000Z,71.4
2023-04-07T13:01:21.000Z,71.1
2023-04-07T13:02:37.000Z,71.9
2023-04-07T13:03:53.000Z,76.2
2023-04-07T13:05:09.000Z,73.9
2023-04-07T13:06:25.000Z,68.5
2023-04-07T13:07:41.000Z,67.8
2023-04-07T13:08:58.000Z,67.5
2023-04-07T13:10:14.000Z,70.1
2023-04-07T13:11:30.000Z,71.4
2023-04-07T13:12:46.000Z,70.4
2023-04-07T13:14:02.000Z,71.3
2023-04-07T13:15:18.000Z,72.8
2023-04-07T13:16:34.000Z,71.7
2023-04-07T13:17:50.000Z,70.7
2023-04-07T13:19:06.000Z,71.4
2023-04-07T13:20:22.000Z,72
2023-04-07T13:22:54.000Z,72
2023-04-07T13:24:11.027Z,73.8
2023-04-07T13:25:26.000Z,71.5
2023-04-07T13:26:43.000Z,72.1
2023-04-07T13:27:58.000Z,70.9
2023-04-07T13:29:13.000Z,71.4
2023-04-07T13:30:28.000Z,72
2023-04-07T13:31:43.000Z,72.1
2023-04-07T13:32:59.000Z,73.6
2023-04-07T13:34:16.000Z,72.6
2023-04-07T13:35:32.000Z,72.5
2023-04-07T13:36:48.000Z,70.1
2023-04-07T13:38:04.000Z,71.8
2023-04-07T13:39:20.000Z,71.9
2023-04-07T13:40:36.000Z,70.8
2023-04-07T13:41:52.000Z,71.9
2023-04-07T13:43:09.000Z,72.1
2023-04-07T13:44:25.000Z,72.8
2023-04-07T13:45:41.000Z,73.5
2023-04-07T13:46:57.000Z,74.8
2023-04-07T13:48:12.893Z,75.3
2023-04-07T13:49:28.000Z,75.4
2023-04-07T13:50:44.000Z,74.6
2023-04-07T13:52:01.000Z,74
2023-04-07T13:53:17.000Z,72.7
2023-04-07T13:54:33.000Z,72
2023-04-07T13:55:49.000Z,71.5
2023-04-07T13:57:04.000Z,72
2023-04-07T13:58:19.000Z,72.1
2023-04-07T13:59:35.000Z,72.1
2023-04-07T14:00:50.000Z,72.5
2023-04-07T14:02:06.000Z,72.6
2023-04-07T14:03:22.000Z,72.6
2023-04-07T14:04:38.000Z,73.9
2023-04-07T14:05:54.000Z,73.5
2023-04-07T14:07:10.000Z,73.5
2023-04-07T14:08:27.000Z,73.9
2023-04-07T14:09:43.000Z,74
2023-04-07T14:10:59.000Z,73.8
2023-04-07T14:12:15.000Z,73.4
2023-04-07T14:13:31.000Z,74.6
2023-04-07T14:14:47.000Z,75.7
2023-04-07T14:16:03.000Z,76
2023-04-07T14:17:19.000Z,79.3
2023-04-07T14:18:35.000Z,78.1
2023-04-07T14:19:51.000Z,79.5
2023-04-07T14:21:07.769Z,77.7
2023-04-07T14:22:23.000Z,78.2
2023-04-07T14:23:39.000Z,76.8
2023-04-07T14:24:56.210Z,77.5
2023-04-07T14:26:11.000Z,80.1
2023-04-07T14:27:26.000Z,79.5
2023-04-07T14:28:42.000Z,82.7
2023-04-07T14:29:58.000Z,83
2023-04-07T14:31:14.000Z,80.6
2023-04-07T14:32:30.000Z,84.3
2023-04-07T14:33:47.267Z,86
2023-04-07T14:35:03.000Z,83.9
2023-04-07T14:36:19.000Z,84.5
2023-04-07T14:37:35.000Z,83.1
2023-04-07T14:38:51.000Z,82.7
2023-04-07T14:40:07.000Z,84.7
2023-04-07T14:41:24.142Z,86.9
2023-04-07T14:42:40.000Z,87.6
2023-04-07T14:43:55.000Z,90.2
2023-04-07T14:45:11.000Z,90.7
2023-04-07T14:46:27.000Z,92
2023-04-07T14:47:43.000Z,90.9
2023-04-07T14:48:59.000Z,93.3
2023-04-07T14:50:15.000Z,91.1
2023-04-07T14:51:32.000Z,91.5
2023-04-07T14:52:47.000Z,91.5
2023-04-07T14:54:02.000Z,91.9
2023-04-07T14:55:17.000Z,92.5
2023-04-07T14:56:32.000Z,90.1
2023-04-07T14:57:47.000Z,84.7
2023-04-07T14:59:03.000Z,85.7
2023-04-07T15:00:19.000Z,85.1
2023-04-07T15:01:35.000Z,84.7
2023-04-07T15:02:51.000Z,84.2
2023-04-07T15:04:07.000Z,82.3
2023-04-07T15:05:23.000Z,82.5
2023-04-07T15:06:39.000Z,85.3
2023-04-07T15:07:56.000Z,90.8
2023-04-07T15:09:12.000Z,89.2
2023-04-07T15:10:28.633Z,89
2023-04-07T15:11:44.000Z,91.2
2023-04-07T15:13:00.000Z,92.6
2023-04-07T15:14:16.000Z,92.7
2023-04-07T15:15:32.000Z,92.6
2023-04-07T15:16:48.000Z,94.6
2023-04-07T15:18:04.000Z,96.4
2023-04-07T15:19:20.000Z,96.5
2023-04-07T15:20:36.000Z,95.8
2023-04-07T15:21:52.000Z,96
2023-04-07T15:23:08.000Z,97.6
2023-04-07T15:24:24.000Z,98.4
2023-04-07T15:25:39.000Z,99.1
2023-04-07T15:26:55.000Z,97.5
2023-04-07T15:28:10.000Z,98.5
2023-04-07T15:29:25.000Z,100
2023-04-07T15:30:42.062Z,100
2023-04-07T15:31:57.000Z,100
2023-04-07T15:33:14.000Z,100
2023-04-07T15:34:30.000Z,100
2023-04-07T15:35:46.000Z,100
2023-04-07T15:37:02.000Z,100
2023-04-07T15:38:18.000Z,100
2023-04-07T15:39:34.000Z,100
2023-04-07T15:40:51.000Z,100
2023-04-07T15:42:07.000Z,100
2023-04-07T15:43:23.000Z,100
2023-04-07T15:44:39.000Z,100
2023-04-07T15:45:54.000Z,100
2023-04-07T15:47:10.000Z,100
2023-04-07T15:48:26.000Z,100
2023-04-07T15:49:43.000Z,100
2023-04-07T15:50:59.000Z,100
2023-04-07T15:52:15.000Z,100
2023-04-07T15:53:31.000Z,100
2023-04-07T15:54:46.000Z,100
2023-04-07T15:56:01.000Z,100
2023-04-07T15:57:18.182Z,100
2023-04-07T15:58:33.365Z,100
2023-04-07T15:59:48.000Z,100
2023-04-07T16:01:04.000Z,100
2023-04-07T16:02:20.000Z,100
2023-04-07T16:03:36.000Z,100
2023-04-07T16:04:52.000Z,100
2023-04-07T16:06:09.233Z,100
2023-04-07T16:07:25.000Z,100
2023-04-07T16:08:41.000Z,100
2023-04-07T16:09:56.000Z,100
2023-04-07T16:11:12.000Z,100
2023-04-07T16:12:29.000Z,100
2023-04-07T16:13:44.000Z,100
2023-04-07T16:15:01.000Z,100
2023-04-07T16:16:17.000Z,100
2023-04-07T16:17:33.000Z,100
2023-04-07T16:18:49.000Z,100
2023-04-07T16:20:05.000Z,100
2023-04-07T16:21:21.000Z,100
2023-04-07T16:22:37.000Z,100
2023-04-07T16:23:54.000Z,100
2023-04-07T16:25:09.000Z,100
2023-04-07T16:26:24.000Z,100
2023-04-07T16:27:40.000Z,100
2023-04-07T16:28:55.000Z,100
2023-04-07T16:30:10.000Z,100
2023-04-07T16:31:27.000Z,100
2023-04-07T16:32:43.000Z,100
2023-04-07T16:33:59.000Z,100
2023-04-07T16:35:15.000Z,100
2023-04-07T16:36:31.000Z,100
2023-04-07T16:37:47.970Z,100
2023-04-07T16:39:03.000Z,100
2023-04-07T16:40:20.000Z,100
2023-04-07T16:41:36.410Z,100
2023-04-07T16:42:52.000Z,100
2023-04-07T16:44:08.000Z,100
2023-04-07T16:45:24.000Z,100
2023-04-07T16:46:39.000Z,100
2023-04-07T16:47:55.000Z,100
2023-04-07T16:49:12.000Z,100
2023-04-07T16:50:28.451Z,100
2023-04-07T16:51:44.000Z,100
2023-04-07T16:53:00.000Z,100
2023-04-07T16:54:16.000Z,100
2023-04-07T16:55:31.000Z,100
2023-04-07T16:56:46.000Z,100
2023-04-07T16:58:03.000Z,100
2023-04-07T16:59:19.000Z,100
2023-04-07T17:00:35.000Z,100
2023-04-07T17:01:51.803Z,100
2023-04-07T17:03:07.000Z,100
2023-04-07T17:04:23.000Z,100
2023-04-07T17:06:56.000Z,100
2023-04-07T17:08:12.000Z,100
2023-04-07T17:09:28.000Z,100
2023-04-07T17:10:44.000Z,100
2023-04-07T17:12:00.000Z,100
2023-04-07T17:13:15.000Z,100
2023-04-07T17:14:32.000Z,100
2023-04-07T17:15:48.000Z,100